Terminal Aerodrome Forecast
Issued by NWS

Home | Current Version | Previous Version | Text Only | Print | Product List | Glossary On
Versions: 1 2 3 4 5 6 7 8 9 10 11 12 13 14 15 16
000
FTUS43 KDLH 022336
TAFBRD
TAF
KBRD 022336Z 0300/0324 20007KT P6SM SCT050
     FM031700 27011KT P6SM VCSH BKN050
      TEMPO 0318/0321 6SM TSRA BR BKN035CB
     FM032200 30008KT P6SM SCT060=

USA.gov is the U.S. government's official web portal to all federal, state and local government web resources and services.